»·PEaware :: DAL258 KPDX-CYVR

DAL258 :: KPDX-CYVR

FLIGHT INFORMATION

Flight Status: Arrived
Operator:
Delta Air Lines
More flights by this operator :: More flights under this callsign
Pilot: Brad M. (22842)
Aircraft: AIRBUS A319
(A319)
More flights by this aircraft type
Origin: KPDX Portland Intl
United States
Destination: CYVR Vancouver Intl
Canada
More flights between these airports :: More routes between these airports
Route: +PTLD1 BTG J1 SEA PAE GRIZZ6
File this flight plan on PilotEdge
Remarks:
Altitude:
(Current/Filed)
28,000ft
Speed:
(Current/Filed)
400kts
Departed: 02-May-19 06:13 PM
Arrived: 02-May-19 07:01 PM
Distance/Time
Traveled:
218nm/0:48
Distance/Time
To Go:
Arrived

Flight Plot

Page will automatically refresh every two minutes.

Flight plan parsing failed; only flown route is shown


Map Options




Map Legend


Flown Route
Filed Route
Departure Airport
Arrival Airport
Navaid (VOR, NDB)
Fix

Horizontal Profiles

Position Reports

Time Latitude Longitude Heading Altitude Ground
Speed
02-May-19 17:46 45.589477 -122.596339 208 44ft 0kts
02-May-19 17:47 45.589477 -122.596339 208 44ft 0kts
02-May-19 17:48 45.589477 -122.596339 208 44ft 0kts
02-May-19 17:49 45.589477 -122.596339 208 44ft 0kts
02-May-19 17:50 45.589477 -122.596339 208 44ft 0kts
02-May-19 17:51 45.589477 -122.596339 208 44ft 0kts
02-May-19 17:52 45.589477 -122.596339 208 44ft 0kts
02-May-19 17:53 45.589477 -122.596339 208 44ft 0kts
02-May-19 17:54 45.589477 -122.596339 208 44ft 0kts
02-May-19 17:55 45.589477 -122.596339 208 44ft 0kts
02-May-19 17:56 45.589477 -122.596339 208 44ft 0kts
02-May-19 17:57 45.589477 -122.596339 208 44ft 0kts
02-May-19 17:58 45.589477 -122.596339 208 44ft 0kts
02-May-19 17:59 45.589477 -122.596339 208 44ft 0kts
02-May-19 18:00 45.589477 -122.596339 208 44ft 0kts
02-May-19 18:01 45.589652 -122.596194 213 44ft 2kts
02-May-19 18:02 45.589913 -122.595516 298 44ft 2kts
02-May-19 18:03 45.589812 -122.595252 298 44ft 0kts
02-May-19 18:04 45.589812 -122.595254 298 44ft 0kts
02-May-19 18:05 45.590391 -122.596756 299 44ft 11kts
02-May-19 18:06 45.591283 -122.599173 293 44ft 5kts
02-May-19 18:07 45.589598 -122.602047 206 44ft 5kts
02-May-19 18:08 45.587529 -122.598711 118 44ft 18kts
02-May-19 18:09 45.585038 -122.592339 120 44ft 9kts
02-May-19 18:10 45.583019 -122.587116 120 44ft 19kts
02-May-19 18:11 45.581483 -122.583605 170 44ft 0kts
02-May-19 18:12 45.581516 -122.586425 297 44ft 68kts
02-May-19 18:13 45.603117 -122.643568 297 2785ft 189kts
02-May-19 18:14 45.656517 -122.661701 18 6184ft 258kts
02-May-19 18:15 45.723931 -122.609432 25 10719ft 296kts
02-May-19 18:16 45.813342 -122.580001 2 13403ft 366kts
02-May-19 18:17 45.919918 -122.563744 4 16454ft 396kts
02-May-19 18:18 46.031646 -122.545373 3 19422ft 411kts
02-May-19 18:19 46.147577 -122.526381 3 22003ft 426kts
02-May-19 18:20 46.267198 -122.506683 2 24175ft 439kts
02-May-19 18:21 46.390237 -122.486335 2 26050ft 451kts
02-May-19 18:22 46.514316 -122.465709 1 28212ft 445kts
02-May-19 18:23 46.637346 -122.445184 1 28225ft 445kts
02-May-19 18:24 46.760147 -122.424581 1 28223ft 445kts
02-May-19 18:25 46.884526 -122.403663 1 28222ft 458kts
02-May-19 18:26 47.012001 -122.382081 1 28226ft 460kts
02-May-19 18:27 47.139014 -122.360478 1 28227ft 460kts
02-May-19 18:28 47.266240 -122.338721 1 28178ft 459kts
02-May-19 18:29 47.393136 -122.316945 1 28184ft 459kts
02-May-19 18:30 47.520037 -122.303857 356 28194ft 456kts
02-May-19 18:31 47.646852 -122.295850 357 28236ft 456kts
02-May-19 18:32 47.773620 -122.287509 357 28264ft 455kts
02-May-19 18:33 47.899976 -122.279215 356 28270ft 455kts
02-May-19 18:34 48.020497 -122.306506 343 27652ft 427kts
02-May-19 18:35 48.135164 -122.340011 345 25082ft 404kts
02-May-19 18:36 48.245516 -122.372332 345 22229ft 411kts
02-May-19 18:37 48.354459 -122.403967 346 19578ft 386kts
02-May-19 18:38 48.457323 -122.434240 346 17091ft 364kts
02-May-19 18:39 48.558161 -122.464039 346 14681ft 372kts
02-May-19 18:40 48.657440 -122.493319 346 12345ft 348kts
02-May-19 18:41 48.735520 -122.546797 310 11403ft 305kts
02-May-19 18:42 48.789815 -122.645515 310 10416ft 306kts
02-May-19 18:43 48.846252 -122.743170 310 10016ft 309kts
02-May-19 18:44 48.902746 -122.841916 310 10019ft 309kts
02-May-19 18:45 48.958856 -122.940322 310 10016ft 309kts
02-May-19 18:46 49.014689 -123.038611 310 10008ft 291kts
02-May-19 18:47 49.064608 -123.126634 309 9120ft 269kts
02-May-19 18:48 49.091806 -123.231681 282 7024ft 269kts
02-May-19 18:49 49.111168 -123.341659 283 6221ft 267kts
02-May-19 18:50 49.129942 -123.450460 283 5038ft 263kts
02-May-19 18:51 49.151218 -123.556235 305 3814ft 261kts
02-May-19 18:52 49.216252 -123.553334 32 3628ft 266kts
02-May-19 18:53 49.285075 -123.513631 15 3602ft 265kts
02-May-19 18:54 49.333334 -123.440509 80 3628ft 266kts
02-May-19 18:55 49.329515 -123.334251 138 3044ft 257kts
02-May-19 18:56 49.272241 -123.289646 143 1894ft 194kts
02-May-19 18:57 49.241306 -123.250655 142 1346ft 127kts
02-May-19 18:58 49.214394 -123.218443 141 452ft 121kts
02-May-19 18:59 49.190625 -123.189811 142 28ft 53kts
02-May-19 19:00 49.185186 -123.182457 94 28ft 1kts
02-May-19 19:01 49.186777 -123.181354 9 28ft 10kts
02-May-19 19:02 49.189321 -123.180771 9 28ft 13kts
02-May-19 19:03 49.191456 -123.181376 297 28ft 0kts
02-May-19 19:04 49.191539 -123.182163 259 28ft 4kts
02-May-19 19:05 49.192112 -123.182680 8 28ft 0kts

Navigation Log

Ident Type
Flight plan parsing failed, navigation log unavailable